EW8946 Zaragoza ES current weather conditions

sailwx.info

Wind from 148

Air temperature 17.8° C
Dewpoint 15.4° C

Last reported at 2020-Aug-12 06:00 UTC.
Time now 2020-Aug-12 06:35 UTC

Location: N 41°37' W 000°55'.
View on Google Maps.

See reports from other nearby stations

  
Tides and Currents Weather Stations Pressure Air Temp Water Temp Dewpoint Dewpoint Depression Visibility Wind Speed Wind Dir Waves Ship Positions
date/time (UTC)wind fromknots sea level pressurealtimeterstation pressurevisibilityair tempwater tempwave heightnotes
2020-Aug-12 06:00 148 17.8
2020-Aug-12 05:45 139 17.2
2020-Aug-12 05:30 130 17.2
2020-Aug-12 05:16 121 17.2
2020-Aug-12 05:00 122 17.2
2020-Aug-12 04:46 121 17.8
2020-Aug-12 04:30 162 17.8
2020-Aug-12 04:15 162 17.8
2020-Aug-12 04:01 162 18.3
2020-Aug-12 03:45 162 18.9
2020-Aug-12 03:30 162 18.9
2020-Aug-12 03:15 194 18.9
2020-Aug-12 03:01 128 19.4
2020-Aug-12 02:45 185 0 gusting 4 18.9
2020-Aug-12 02:30 224 18.9
2020-Aug-12 02:15 110 18.9
2020-Aug-12 01:45 212 0 gusting 6 19.4
2020-Aug-12 01:30 240 20.0
2020-Aug-12 01:15 240 0 gusting 3 20.0
2020-Aug-12 01:00 148 20.0
2020-Aug-12 00:45 110 20.0
2020-Aug-12 00:30 113 0 gusting 3 20.6
2020-Aug-12 00:16 108 0 gusting 6 21.1
2020-Aug-12 00:01 110 0 gusting 9 21.7
2020-Aug-11 23:45 125 4 gusting 9 21.7
2020-Aug-11 23:31 075 6 gusting 14 22.2
2020-Aug-11 23:15 054 6 gusting 17 21.7
2020-Aug-11 23:00 095 7 gusting 16 21.7
2020-Aug-11 22:46 110 8 gusting 15 21.7
2020-Aug-11 22:31 330 4 gusting 11 22.2
2020-Aug-11 22:15 107 4 gusting 9 22.2
2020-Aug-11 21:46 092 6 gusting 15 23.3
2020-Aug-11 21:30 098 5 gusting 12 23.9
2020-Aug-11 21:15 032 5 gusting 12 23.9
2020-Aug-11 21:00 136 4 gusting 8 25.0
2020-Aug-11 20:45 193 6 gusting 14 26.7
2020-Aug-11 20:31 183 27.2
2020-Aug-11 20:15 162 26.7
2020-Aug-11 20:00 162 27.2
2020-Aug-11 19:45 162 27.8
2020-Aug-11 19:30 170 27.8
2020-Aug-11 19:15 171 27.8
2020-Aug-11 19:00 150 28.3
2020-Aug-11 18:45 214 1 gusting 7 28.9
2020-Aug-11 18:31 246 0 gusting 10 28.9
2020-Aug-11 18:16 250 2 gusting 8 28.9
2020-Aug-11 18:00 190 1 gusting 8 28.9
2020-Aug-11 17:45 235 0 gusting 6 30.0
2020-Aug-11 17:30 215 0 gusting 6 30.6
2020-Aug-11 17:15 180 0 gusting 6 30.6
2020-Aug-11 17:00 191 31.1
2020-Aug-11 16:45 160 30.6
2020-Aug-11 16:30 200 30.0
2020-Aug-11 16:15 186 30.0
2020-Aug-11 16:00 139 30.6
2020-Aug-11 15:45 207 30.6
2020-Aug-11 15:30 184 31.1
2020-Aug-11 15:15 178 0 gusting 6 31.1
2020-Aug-11 15:00 174 31.1
2020-Aug-11 14:47 190 31.1
2020-Aug-11 14:45 190 31.1
2020-Aug-11 14:32 210 30.6
2020-Aug-11 14:16 240 30.6
2020-Aug-11 14:01 243 2 gusting 9 30.6
2020-Aug-11 13:46 260 1 gusting 7 31.1
2020-Aug-11 13:32 246 2 gusting 11 31.7
2020-Aug-11 13:16 228 30.6
2020-Aug-11 13:01 210 0 gusting 8 30.0
2020-Aug-11 12:46 248 2 gusting 10 30.0
2020-Aug-11 12:31 263 3 gusting 11 29.4
2020-Aug-11 12:16 229 4 gusting 13 29.4
2020-Aug-11 12:01 219 4 gusting 9 29.4
2020-Aug-11 11:46 153 0 gusting 13 28.9
2020-Aug-11 11:30 240 0 gusting 8 29.4
2020-Aug-11 11:16 250 6 gusting 14 30.0
2020-Aug-11 11:02 197 3 gusting 12 29.4
2020-Aug-11 10:45 256 2 gusting 7 29.4
2020-Aug-11 10:30 253 1 gusting 9 28.3
2020-Aug-11 10:16 194 2 gusting 8 28.3
2020-Aug-11 10:00 254 1 gusting 6 28.9
2020-Aug-11 09:46 260 2 gusting 6 28.9
2020-Aug-11 09:30 167 1 gusting 9 28.9
2020-Aug-11 09:15 107 1 gusting 10 28.9
2020-Aug-11 09:00 245 4 gusting 13 28.3
2020-Aug-11 08:46 264 3 gusting 13 27.8
2020-Aug-11 08:30 301 3 gusting 9 27.8
2020-Aug-11 08:15 226 2 gusting 8 27.2
2020-Aug-11 08:00 019 0 gusting 9 27.2
2020-Aug-11 07:45 250 0 gusting 5 26.7
2020-Aug-11 07:30 163 26.7
2020-Aug-11 07:16 173 26.1
2020-Aug-11 07:02 190 25.0
2020-Aug-11 06:46 213 23.9
2020-Aug-11 06:31 160 23.3
2020-Aug-11 06:16 183 22.8
2020-Aug-11 06:01 186 22.8
2020-Aug-11 05:46 176 22.8
2020-Aug-11 05:32 194 22.8
2020-Aug-11 05:17 179 22.8
2020-Aug-11 05:01 184 23.3
2020-Aug-11 04:47 180 23.3
2020-Aug-11 04:32 193 22.8
2020-Aug-11 04:16 186 22.8
2020-Aug-11 04:02 191 22.8
2020-Aug-11 03:45 163 22.8
2020-Aug-11 03:30 173 22.8
2020-Aug-11 03:17 194 23.3
2020-Aug-11 03:00 187 23.3
2020-Aug-11 02:45 229 4 gusting 7 23.9
2020-Aug-11 02:31 208 1 gusting 6 23.9
2020-Aug-11 02:15 169 0 gusting 5 23.3
2020-Aug-11 02:01 163 23.9
2020-Aug-11 01:46 215 0 gusting 4 23.3
2020-Aug-11 01:30 102 23.3
2020-Aug-11 01:16 102 23.3
2020-Aug-11 01:01 172 23.9
2020-Aug-11 00:46 174 24.4
2020-Aug-11 00:30 182 24.4
2020-Aug-11 00:15 226 0 gusting 4 24.4
2020-Aug-11 00:00 186 24.4
2020-Aug-10 23:45 191 24.4
2020-Aug-10 23:30 198 25.0
2020-Aug-10 23:15 219 25.0
2020-Aug-10 23:00 181 25.0
2020-Aug-10 22:46 184 25.6
2020-Aug-10 22:30 222 25.6
2020-Aug-10 22:15 184 26.1
2020-Aug-10 22:00 190 26.1
2020-Aug-10 21:32 210 26.7
2020-Aug-10 21:17 246 0 gusting 4 27.2
2020-Aug-10 21:02 188 0 gusting 4 27.8
2020-Aug-10 20:47 264 0 gusting 3 28.3
2020-Aug-10 20:31 186 0 gusting 5 28.9
2020-Aug-10 20:17 245 28.9
2020-Aug-10 20:01 260 2 gusting 6 29.4
2020-Aug-10 19:46 201 0 gusting 5 30.0
2020-Aug-10 19:32 263 2 gusting 6 30.0
2020-Aug-10 19:16 211 0 gusting 6 30.6
2020-Aug-10 19:01 191 31.1
2020-Aug-10 18:47 190 1 gusting 7 31.1
2020-Aug-10 18:32 311 2 gusting 7 31.7
2020-Aug-10 18:16 278 1 gusting 7 32.2
2020-Aug-10 18:02 232 1 gusting 8 32.2
2020-Aug-10 17:46 322 2 gusting 7 32.8
2020-Aug-10 17:31 233 3 gusting 7 32.8
2020-Aug-10 17:16 222 4 gusting 10 33.3
2020-Aug-10 17:01 254 1 gusting 8 32.8
2020-Aug-10 16:46 259 4 gusting 11 32.2
2020-Aug-10 16:31 253 5 gusting 13 32.8
2020-Aug-10 16:16 146 2 gusting 9 33.3
2020-Aug-10 16:01 272 2 gusting 8 33.3
2020-Aug-10 15:46 242 4 gusting 10 33.3
2020-Aug-10 15:31 253 2 gusting 10 33.9
2020-Aug-10 15:17 218 0 gusting 11 34.4
2020-Aug-10 15:01 167 2 gusting 8 34.4
2020-Aug-10 14:45 298 4 gusting 8 33.9
2020-Aug-10 14:30 262 1 gusting 7 34.4
2020-Aug-10 14:15 218 3 gusting 7 34.4
2020-Aug-10 14:00 188 0 gusting 4 33.3
2020-Aug-10 13:46 210 2 gusting 4 32.8
2020-Aug-10 13:30 141 32.8
2020-Aug-10 13:15 127 33.9
2020-Aug-10 13:00 143 0 gusting 6 33.3
2020-Aug-10 12:45 203 2 gusting 6 33.3
2020-Aug-10 12:31 222 3 gusting 6 32.8
2020-Aug-10 12:15 269 2 gusting 5 32.8
2020-Aug-10 12:00 203 2 gusting 6 32.2
2020-Aug-10 11:45 278 4 gusting 8 32.2
2020-Aug-10 11:30 236 2 gusting 7 31.1
2020-Aug-10 11:15 235 3 gusting 7 30.6
2020-Aug-10 11:00 207 0 gusting 9 31.1
2020-Aug-10 10:45 195 4 gusting 11 32.2
2020-Aug-10 10:30 259 4 gusting 10 31.7
2020-Aug-10 10:16 250 2 gusting 8 31.1
2020-Aug-10 10:01 139 0 gusting 6 31.1
2020-Aug-10 09:46 207 3 gusting 6 30.6
2020-Aug-10 09:31 193 0 gusting 5 30.6
2020-Aug-10 09:16 221 1 gusting 5 29.4
2020-Aug-10 09:00 260 28.3
2020-Aug-10 08:46 166 0 gusting 4 27.8
2020-Aug-10 08:31 183 1 gusting 7 27.2
2020-Aug-10 08:17 240 3 gusting 6 27.2
2020-Aug-10 08:01 233 0 gusting 5 26.7
2020-Aug-10 07:46 248 0 gusting 6 26.1
2020-Aug-10 07:31 217 0 gusting 3 26.1
2020-Aug-10 07:15 180 25.6
2020-Aug-10 07:01 183 24.4
2020-Aug-10 06:46 218 0 gusting 2 24.4
2020-Aug-10 06:30 250 24.4
2020-Aug-10 06:17 217 0 gusting 2 23.9
2020-Aug-10 06:01 168 23.3